Terminal Aerodrome Forecast
Issued by NWS

Home | Current Version | Previous Version | Text Only | Print | Product List | Glossary On
Versions: 1 2 3 4 5 6 7 8 9 10 11 12 13
000
FTPQ31 PGUM 031725
TAFGUM
TAF

TAF
PKMJ 031725Z 0318/0418 07014KT 6SM -RA VCTS SCT014CB BKN050 OVC080
      TEMPO 0318/0321 4SM SHRA BKN012 OVC030
     FM032100 07011KT P6SM VCSH SCT016 BKN060 OVC100=

USA.gov is the U.S. government's official web portal to all federal, state and local government web resources and services.